sensor_id;sensor_type;location;lat;lon;timestamp;P1;durP1;ratioP1;P2;durP2;ratioP2
12818;SDS011;6474;53.474;9.894;2023-06-10T00:00:59;3.88;;;1.77;;
12818;SDS011;6474;53.474;9.894;2023-06-10T00:03:28;1.40;;;1.40;;
12818;SDS011;6474;53.474;9.894;2023-06-10T00:05:56;1.55;;;1.50;;
12818;SDS011;6474;53.474;9.894;2023-06-10T00:08:24;1.92;;;1.67;;
12818;SDS011;6474;53.474;9.894;2023-06-10T00:10:56;1.77;;;1.67;;
12818;SDS011;6474;53.474;9.894;2023-06-10T00:13:23;1.60;;;1.60;;
12818;SDS011;6474;53.474;9.894;2023-06-10T00:15:52;1.98;;;1.80;;
12818;SDS011;6474;53.474;9.894;2023-06-10T00:18:21;3.70;;;1.25;;
12818;SDS011;6474;53.474;9.894;2023-06-10T00:20:49;1.05;;;1.05;;
12818;SDS011;6474;53.474;9.894;2023-06-10T00:23:20;1.53;;;1.50;;
12818;SDS011;6474;53.474;9.894;2023-06-10T00:25:49;2.73;;;1.47;;
12818;SDS011;6474;53.474;9.894;2023-06-10T00:28:18;5.95;;;2.15;;
12818;SDS011;6474;53.474;9.894;2023-06-10T00:30:47;1.73;;;1.63;;
12818;SDS011;6474;53.474;9.894;2023-06-10T00:33:15;1.38;;;1.38;;
12818;SDS011;6474;53.474;9.894;2023-06-10T00:35:44;6.03;;;1.30;;
12818;SDS011;6474;53.474;9.894;2023-06-10T00:38:13;2.10;;;1.40;;
12818;SDS011;6474;53.474;9.894;2023-06-10T00:40:41;1.48;;;1.33;;
12818;SDS011;6474;53.474;9.894;2023-06-10T00:43:11;2.10;;;1.40;;
12818;SDS011;6474;53.474;9.894;2023-06-10T00:45:42;10.05;;;1.90;;
12818;SDS011;6474;53.474;9.894;2023-06-10T00:48:12;2.00;;;1.73;;
12818;SDS011;6474;53.474;9.894;2023-06-10T00:50:40;1.65;;;1.55;;
12818;SDS011;6474;53.474;9.894;2023-06-10T00:53:10;2.03;;;1.92;;
12818;SDS011;6474;53.474;9.894;2023-06-10T00:55:39;1.30;;;1.30;;
12818;SDS011;6474;53.474;9.894;2023-06-10T00:58:09;2.03;;;1.57;;
12818;SDS011;6474;53.474;9.894;2023-06-10T01:00:37;6.30;;;1.95;;
12818;SDS011;6474;53.474;9.894;2023-06-10T01:03:08;1.73;;;1.63;;
12818;SDS011;6474;53.474;9.894;2023-06-10T01:05:36;1.80;;;1.80;;
12818;SDS011;6474;53.474;9.894;2023-06-10T01:08:07;4.03;;;1.45;;
12818;SDS011;6474;53.474;9.894;2023-06-10T01:10:41;5.00;;;1.87;;
12818;SDS011;6474;53.474;9.894;2023-06-10T01:13:15;4.43;;;1.67;;
12818;SDS011;6474;53.474;9.894;2023-06-10T01:15:45;1.40;;;1.23;;
12818;SDS011;6474;53.474;9.894;2023-06-10T01:18:15;1.10;;;1.10;;
12818;SDS011;6474;53.474;9.894;2023-06-10T01:20:43;1.77;;;1.67;;
12818;SDS011;6474;53.474;9.894;2023-06-10T01:23:15;1.60;;;1.50;;
12818;SDS011;6474;53.474;9.894;2023-06-10T01:25:55;7.55;;;1.60;;
12818;SDS011;6474;53.474;9.894;2023-06-10T01:28:27;1.40;;;1.30;;
12818;SDS011;6474;53.474;9.894;2023-06-10T01:31:03;1.00;;;1.00;;
12818;SDS011;6474;53.474;9.894;2023-06-10T01:33:39;1.63;;;1.53;;
12818;SDS011;6474;53.474;9.894;2023-06-10T01:36:10;1.10;;;1.10;;
12818;SDS011;6474;53.474;9.894;2023-06-10T01:38:43;1.20;;;1.20;;
12818;SDS011;6474;53.474;9.894;2023-06-10T01:41:13;4.13;;;1.73;;
12818;SDS011;6474;53.474;9.894;2023-06-10T01:43:43;1.70;;;1.60;;
12818;SDS011;6474;53.474;9.894;2023-06-10T01:46:11;1.13;;;1.10;;
12818;SDS011;6474;53.474;9.894;2023-06-10T01:48:40;2.60;;;1.20;;
12818;SDS011;6474;53.474;9.894;2023-06-10T01:51:10;1.73;;;1.73;;
12818;SDS011;6474;53.474;9.894;2023-06-10T01:53:39;1.50;;;1.43;;
12818;SDS011;6474;53.474;9.894;2023-06-10T01:56:09;4.50;;;1.73;;
12818;SDS011;6474;53.474;9.894;2023-06-10T01:58:45;1.05;;;1.05;;
12818;SDS011;6474;53.474;9.894;2023-06-10T02:01:16;1.10;;;1.10;;
12818;SDS011;6474;53.474;9.894;2023-06-10T02:03:44;1.10;;;1.10;;
12818;SDS011;6474;53.474;9.894;2023-06-10T02:06:12;1.20;;;1.20;;
12818;SDS011;6474;53.474;9.894;2023-06-10T02:08:40;1.20;;;1.20;;
12818;SDS011;6474;53.474;9.894;2023-06-10T02:11:10;1.47;;;1.30;;
12818;SDS011;6474;53.474;9.894;2023-06-10T02:13:38;1.53;;;1.43;;
12818;SDS011;6474;53.474;9.894;2023-06-10T02:16:08;1.47;;;1.47;;
12818;SDS011;6474;53.474;9.894;2023-06-10T02:18:39;1.20;;;1.10;;
12818;SDS011;6474;53.474;9.894;2023-06-10T02:21:09;1.58;;;1.48;;
12818;SDS011;6474;53.474;9.894;2023-06-10T02:23:37;1.10;;;1.10;;
12818;SDS011;6474;53.474;9.894;2023-06-10T02:26:06;3.83;;;1.17;;
12818;SDS011;6474;53.474;9.894;2023-06-10T02:28:35;1.07;;;1.07;;
12818;SDS011;6474;53.474;9.894;2023-06-10T02:31:03;1.30;;;1.20;;
12818;SDS011;6474;53.474;9.894;2023-06-10T02:33:32;0.75;;;0.75;;
12818;SDS011;6474;53.474;9.894;2023-06-10T02:36:07;1.43;;;1.23;;
12818;SDS011;6474;53.474;9.894;2023-06-10T02:38:39;2.07;;;1.60;;
12818;SDS011;6474;53.474;9.894;2023-06-10T02:41:07;0.70;;;0.70;;
12818;SDS011;6474;53.474;9.894;2023-06-10T02:43:37;1.17;;;1.17;;
12818;SDS011;6474;53.474;9.894;2023-06-10T02:46:05;1.00;;;1.00;;
12818;SDS011;6474;53.474;9.894;2023-06-10T02:48:40;1.10;;;1.00;;
12818;SDS011;6474;53.474;9.894;2023-06-10T02:51:09;2.23;;;1.17;;
12818;SDS011;6474;53.474;9.894;2023-06-10T02:53:37;2.77;;;1.00;;
12818;SDS011;6474;53.474;9.894;2023-06-10T02:56:08;2.10;;;1.17;;
12818;SDS011;6474;53.474;9.894;2023-06-10T02:58:37;4.17;;;1.00;;
12818;SDS011;6474;53.474;9.894;2023-06-10T03:01:08;1.87;;;1.00;;
12818;SDS011;6474;53.474;9.894;2023-06-10T03:03:36;1.27;;;1.17;;
12818;SDS011;6474;53.474;9.894;2023-06-10T03:06:09;0.70;;;0.70;;
12818;SDS011;6474;53.474;9.894;2023-06-10T03:08:38;0.97;;;0.97;;
12818;SDS011;6474;53.474;9.894;2023-06-10T03:11:06;1.20;;;1.20;;
12818;SDS011;6474;53.474;9.894;2023-06-10T03:13:34;1.40;;;1.30;;
12818;SDS011;6474;53.474;9.894;2023-06-10T03:16:03;5.67;;;1.30;;
12818;SDS011;6474;53.474;9.894;2023-06-10T03:18:32;1.13;;;1.13;;
12818;SDS011;6474;53.474;9.894;2023-06-10T03:21:00;1.60;;;0.90;;
12818;SDS011;6474;53.474;9.894;2023-06-10T03:23:29;1.20;;;1.20;;
12818;SDS011;6474;53.474;9.894;2023-06-10T03:25:56;2.70;;;0.87;;
12818;SDS011;6474;53.474;9.894;2023-06-10T03:28:24;1.13;;;1.03;;
12818;SDS011;6474;53.474;9.894;2023-06-10T03:30:52;1.33;;;1.23;;
12818;SDS011;6474;53.474;9.894;2023-06-10T03:33:22;4.30;;;0.80;;
12818;SDS011;6474;53.474;9.894;2023-06-10T03:35:50;1.13;;;0.97;;
12818;SDS011;6474;53.474;9.894;2023-06-10T03:38:18;1.20;;;1.10;;
12818;SDS011;6474;53.474;9.894;2023-06-10T03:40:46;1.10;;;1.00;;
12818;SDS011;6474;53.474;9.894;2023-06-10T03:43:14;1.20;;;1.10;;
12818;SDS011;6474;53.474;9.894;2023-06-10T03:45:42;2.20;;;1.13;;
12818;SDS011;6474;53.474;9.894;2023-06-10T03:48:10;2.83;;;1.10;;
12818;SDS011;6474;53.474;9.894;2023-06-10T03:50:39;0.88;;;0.82;;
12818;SDS011;6474;53.474;9.894;2023-06-10T03:53:07;1.42;;;1.33;;
12818;SDS011;6474;53.474;9.894;2023-06-10T03:55:35;1.63;;;1.03;;
12818;SDS011;6474;53.474;9.894;2023-06-10T03:58:03;2.73;;;0.90;;
12818;SDS011;6474;53.474;9.894;2023-06-10T04:00:31;0.70;;;0.70;;
12818;SDS011;6474;53.474;9.894;2023-06-10T04:03:08;0.90;;;0.90;;
12818;SDS011;6474;53.474;9.894;2023-06-10T04:05:42;2.13;;;0.90;;
12818;SDS011;6474;53.474;9.894;2023-06-10T04:08:10;0.60;;;0.60;;
12818;SDS011;6474;53.474;9.894;2023-06-10T04:10:38;2.53;;;1.10;;
12818;SDS011;6474;53.474;9.894;2023-06-10T04:13:05;1.33;;;0.93;;
12818;SDS011;6474;53.474;9.894;2023-06-10T04:15:33;0.90;;;0.90;;
12818;SDS011;6474;53.474;9.894;2023-06-10T04:18:01;1.27;;;1.17;;
12818;SDS011;6474;53.474;9.894;2023-06-10T04:20:29;4.13;;;1.20;;
12818;SDS011;6474;53.474;9.894;2023-06-10T04:22:58;1.20;;;1.20;;
12818;SDS011;6474;53.474;9.894;2023-06-10T04:25:27;2.73;;;1.10;;
12818;SDS011;6474;53.474;9.894;2023-06-10T04:27:55;1.23;;;0.88;;
12818;SDS011;6474;53.474;9.894;2023-06-10T04:30:23;1.50;;;0.90;;
12818;SDS011;6474;53.474;9.894;2023-06-10T04:32:50;3.50;;;0.80;;
12818;SDS011;6474;53.474;9.894;2023-06-10T04:35:19;0.70;;;0.70;;
12818;SDS011;6474;53.474;9.894;2023-06-10T04:37:46;1.23;;;1.10;;
12818;SDS011;6474;53.474;9.894;2023-06-10T04:40:16;0.98;;;0.90;;
12818;SDS011;6474;53.474;9.894;2023-06-10T04:42:44;2.30;;;1.10;;
12818;SDS011;6474;53.474;9.894;2023-06-10T04:45:11;0.80;;;0.80;;
12818;SDS011;6474;53.474;9.894;2023-06-10T04:47:39;2.40;;;1.07;;
12818;SDS011;6474;53.474;9.894;2023-06-10T04:50:08;0.77;;;0.67;;
12818;SDS011;6474;53.474;9.894;2023-06-10T04:52:36;1.65;;;1.25;;
12818;SDS011;6474;53.474;9.894;2023-06-10T04:55:04;2.17;;;1.00;;
12818;SDS011;6474;53.474;9.894;2023-06-10T04:57:34;0.82;;;0.82;;
12818;SDS011;6474;53.474;9.894;2023-06-10T05:00:02;1.60;;;0.80;;
12818;SDS011;6474;53.474;9.894;2023-06-10T05:02:32;0.88;;;0.88;;
12818;SDS011;6474;53.474;9.894;2023-06-10T05:05:00;2.28;;;0.80;;
12818;SDS011;6474;53.474;9.894;2023-06-10T05:07:28;3.63;;;0.85;;
12818;SDS011;6474;53.474;9.894;2023-06-10T05:09:55;0.75;;;0.75;;
12818;SDS011;6474;53.474;9.894;2023-06-10T05:12:23;1.05;;;1.05;;
12818;SDS011;6474;53.474;9.894;2023-06-10T05:14:52;0.65;;;0.65;;
12818;SDS011;6474;53.474;9.894;2023-06-10T05:17:20;1.05;;;0.70;;
12818;SDS011;6474;53.474;9.894;2023-06-10T05:19:49;1.85;;;0.77;;
12818;SDS011;6474;53.474;9.894;2023-06-10T05:22:17;2.40;;;0.90;;
12818;SDS011;6474;53.474;9.894;2023-06-10T05:24:45;0.95;;;0.95;;
12818;SDS011;6474;53.474;9.894;2023-06-10T05:27:12;2.92;;;1.05;;
12818;SDS011;6474;53.474;9.894;2023-06-10T05:29:40;2.15;;;1.00;;
12818;SDS011;6474;53.474;9.894;2023-06-10T05:32:10;1.23;;;1.10;;
12818;SDS011;6474;53.474;9.894;2023-06-10T05:34:38;0.80;;;0.80;;
12818;SDS011;6474;53.474;9.894;2023-06-10T05:37:06;0.70;;;0.70;;
12818;SDS011;6474;53.474;9.894;2023-06-10T05:39:35;1.50;;;0.80;;
12818;SDS011;6474;53.474;9.894;2023-06-10T05:42:05;4.05;;;0.98;;
12818;SDS011;6474;53.474;9.894;2023-06-10T05:44:34;0.65;;;0.65;;
12818;SDS011;6474;53.474;9.894;2023-06-10T05:47:02;1.38;;;1.10;;
12818;SDS011;6474;53.474;9.894;2023-06-10T05:49:31;0.82;;;0.82;;
12818;SDS011;6474;53.474;9.894;2023-06-10T05:51:59;2.08;;;1.10;;
12818;SDS011;6474;53.474;9.894;2023-06-10T05:54:27;1.33;;;1.10;;
12818;SDS011;6474;53.474;9.894;2023-06-10T05:56:55;3.47;;;1.08;;
12818;SDS011;6474;53.474;9.894;2023-06-10T05:59:23;1.30;;;0.88;;
12818;SDS011;6474;53.474;9.894;2023-06-10T06:01:51;1.23;;;0.80;;
12818;SDS011;6474;53.474;9.894;2023-06-10T06:04:19;4.70;;;0.82;;
12818;SDS011;6474;53.474;9.894;2023-06-10T06:06:48;1.48;;;1.45;;
12818;SDS011;6474;53.474;9.894;2023-06-10T06:09:16;0.73;;;0.73;;
12818;SDS011;6474;53.474;9.894;2023-06-10T06:11:44;1.13;;;1.13;;
12818;SDS011;6474;53.474;9.894;2023-06-10T06:14:12;1.25;;;0.90;;
12818;SDS011;6474;53.474;9.894;2023-06-10T06:16:40;1.90;;;1.10;;
12818;SDS011;6474;53.474;9.894;2023-06-10T06:19:08;4.18;;;1.00;;
12818;SDS011;6474;53.474;9.894;2023-06-10T06:21:37;0.95;;;0.95;;
12818;SDS011;6474;53.474;9.894;2023-06-10T06:24:07;2.88;;;1.10;;
12818;SDS011;6474;53.474;9.894;2023-06-10T06:26:35;3.13;;;1.00;;
12818;SDS011;6474;53.474;9.894;2023-06-10T06:29:02;1.10;;;0.85;;
12818;SDS011;6474;53.474;9.894;2023-06-10T06:31:30;0.90;;;0.90;;
12818;SDS011;6474;53.474;9.894;2023-06-10T06:33:59;1.83;;;0.95;;
12818;SDS011;6474;53.474;9.894;2023-06-10T06:36:26;4.95;;;1.98;;
12818;SDS011;6474;53.474;9.894;2023-06-10T06:38:54;1.92;;;1.23;;
12818;SDS011;6474;53.474;9.894;2023-06-10T06:41:25;1.17;;;1.15;;
12818;SDS011;6474;53.474;9.894;2023-06-10T06:43:53;1.40;;;1.40;;
12818;SDS011;6474;53.474;9.894;2023-06-10T06:46:21;0.80;;;0.80;;
12818;SDS011;6474;53.474;9.894;2023-06-10T06:48:49;3.75;;;1.35;;
12818;SDS011;6474;53.474;9.894;2023-06-10T06:51:17;1.20;;;1.10;;
12818;SDS011;6474;53.474;9.894;2023-06-10T06:53:45;2.83;;;1.58;;
12818;SDS011;6474;53.474;9.894;2023-06-10T06:56:13;1.02;;;1.00;;
12818;SDS011;6474;53.474;9.894;2023-06-10T06:58:42;0.90;;;0.90;;
12818;SDS011;6474;53.474;9.894;2023-06-10T07:01:10;0.60;;;0.60;;
12818;SDS011;6474;53.474;9.894;2023-06-10T07:03:38;1.15;;;0.98;;
12818;SDS011;6474;53.474;9.894;2023-06-10T07:06:06;3.30;;;1.50;;
12818;SDS011;6474;53.474;9.894;2023-06-10T07:08:33;0.82;;;0.82;;
12818;SDS011;6474;53.474;9.894;2023-06-10T07:11:01;1.10;;;1.00;;
12818;SDS011;6474;53.474;9.894;2023-06-10T07:13:29;1.63;;;1.10;;
12818;SDS011;6474;53.474;9.894;2023-06-10T07:15:58;1.00;;;1.00;;
12818;SDS011;6474;53.474;9.894;2023-06-10T07:18:26;1.05;;;1.05;;
12818;SDS011;6474;53.474;9.894;2023-06-10T07:20:54;1.00;;;1.00;;
12818;SDS011;6474;53.474;9.894;2023-06-10T07:23:22;3.28;;;1.20;;
12818;SDS011;6474;53.474;9.894;2023-06-10T07:25:50;2.05;;;1.38;;
12818;SDS011;6474;53.474;9.894;2023-06-10T07:28:18;0.90;;;0.80;;
12818;SDS011;6474;53.474;9.894;2023-06-10T07:30:46;0.80;;;0.80;;
12818;SDS011;6474;53.474;9.894;2023-06-10T07:33:15;2.72;;;1.10;;
12818;SDS011;6474;53.474;9.894;2023-06-10T07:35:43;1.58;;;1.23;;
12818;SDS011;6474;53.474;9.894;2023-06-10T07:38:11;2.72;;;1.38;;
12818;SDS011;6474;53.474;9.894;2023-06-10T07:40:38;1.00;;;1.00;;
12818;SDS011;6474;53.474;9.894;2023-06-10T07:43:06;2.05;;;0.85;;
12818;SDS011;6474;53.474;9.894;2023-06-10T07:45:34;1.33;;;1.20;;
12818;SDS011;6474;53.474;9.894;2023-06-10T07:48:02;1.13;;;1.02;;
12818;SDS011;6474;53.474;9.894;2023-06-10T07:50:31;4.78;;;1.75;;
12818;SDS011;6474;53.474;9.894;2023-06-10T07:52:59;1.50;;;1.40;;
12818;SDS011;6474;53.474;9.894;2023-06-10T07:55:27;1.15;;;1.00;;
12818;SDS011;6474;53.474;9.894;2023-06-10T07:57:55;1.08;;;1.08;;
12818;SDS011;6474;53.474;9.894;2023-06-10T08:00:24;1.17;;;1.00;;
12818;SDS011;6474;53.474;9.894;2023-06-10T08:02:52;1.85;;;1.25;;
12818;SDS011;6474;53.474;9.894;2023-06-10T08:05:20;1.25;;;1.23;;
12818;SDS011;6474;53.474;9.894;2023-06-10T08:07:49;3.75;;;1.42;;
12818;SDS011;6474;53.474;9.894;2023-06-10T08:10:23;1.25;;;1.25;;
12818;SDS011;6474;53.474;9.894;2023-06-10T08:12:52;2.97;;;1.10;;
12818;SDS011;6474;53.474;9.894;2023-06-10T08:15:20;1.48;;;1.33;;
12818;SDS011;6474;53.474;9.894;2023-06-10T08:17:48;1.67;;;1.40;;
12818;SDS011;6474;53.474;9.894;2023-06-10T08:20:17;2.78;;;1.13;;
12818;SDS011;6474;53.474;9.894;2023-06-10T08:22:45;2.47;;;1.20;;
12818;SDS011;6474;53.474;9.894;2023-06-10T08:25:14;1.95;;;1.65;;
12818;SDS011;6474;53.474;9.894;2023-06-10T08:27:42;2.22;;;1.10;;
12818;SDS011;6474;53.474;9.894;2023-06-10T08:30:10;1.33;;;1.27;;
12818;SDS011;6474;53.474;9.894;2023-06-10T08:32:39;2.08;;;1.58;;
12818;SDS011;6474;53.474;9.894;2023-06-10T08:35:07;1.05;;;1.05;;
12818;SDS011;6474;53.474;9.894;2023-06-10T08:37:36;1.63;;;1.63;;
12818;SDS011;6474;53.474;9.894;2023-06-10T08:40:04;0.88;;;0.88;;
12818;SDS011;6474;53.474;9.894;2023-06-10T08:42:36;2.47;;;1.45;;
12818;SDS011;6474;53.474;9.894;2023-06-10T08:45:07;1.90;;;1.80;;
12818;SDS011;6474;53.474;9.894;2023-06-10T08:47:39;1.23;;;1.23;;
12818;SDS011;6474;53.474;9.894;2023-06-10T08:50:10;2.25;;;1.42;;
12818;SDS011;6474;53.474;9.894;2023-06-10T08:52:40;1.20;;;1.20;;
12818;SDS011;6474;53.474;9.894;2023-06-10T08:55:13;1.52;;;1.30;;
12818;SDS011;6474;53.474;9.894;2023-06-10T08:57:45;1.40;;;1.38;;
12818;SDS011;6474;53.474;9.894;2023-06-10T09:00:14;1.80;;;1.58;;
12818;SDS011;6474;53.474;9.894;2023-06-10T09:02:43;2.05;;;1.83;;
12818;SDS011;6474;53.474;9.894;2023-06-10T09:05:12;2.13;;;1.60;;
12818;SDS011;6474;53.474;9.894;2023-06-10T09:07:41;1.92;;;1.42;;
12818;SDS011;6474;53.474;9.894;2023-06-10T09:10:09;1.70;;;1.33;;
12818;SDS011;6474;53.474;9.894;2023-06-10T09:12:39;1.50;;;1.40;;
12818;SDS011;6474;53.474;9.894;2023-06-10T09:15:08;2.25;;;1.33;;
12818;SDS011;6474;53.474;9.894;2023-06-10T09:17:38;1.35;;;1.35;;
12818;SDS011;6474;53.474;9.894;2023-06-10T09:20:07;1.40;;;1.27;;
12818;SDS011;6474;53.474;9.894;2023-06-10T09:22:36;1.13;;;1.13;;
12818;SDS011;6474;53.474;9.894;2023-06-10T09:25:05;1.70;;;1.60;;
12818;SDS011;6474;53.474;9.894;2023-06-10T09:27:43;2.92;;;1.55;;
12818;SDS011;6474;53.474;9.894;2023-06-10T09:30:26;3.67;;;1.45;;
12818;SDS011;6474;53.474;9.894;2023-06-10T09:32:55;1.20;;;1.20;;
12818;SDS011;6474;53.474;9.894;2023-06-10T09:35:24;3.42;;;1.60;;
12818;SDS011;6474;53.474;9.894;2023-06-10T09:37:54;2.15;;;1.50;;
12818;SDS011;6474;53.474;9.894;2023-06-10T09:40:23;1.38;;;1.38;;
12818;SDS011;6474;53.474;9.894;2023-06-10T09:42:52;1.40;;;1.40;;
12818;SDS011;6474;53.474;9.894;2023-06-10T09:45:22;2.13;;;1.70;;
12818;SDS011;6474;53.474;9.894;2023-06-10T09:47:54;5.25;;;1.77;;
12818;SDS011;6474;53.474;9.894;2023-06-10T09:50:22;1.35;;;1.35;;
12818;SDS011;6474;53.474;9.894;2023-06-10T09:52:51;1.85;;;1.52;;
12818;SDS011;6474;53.474;9.894;2023-06-10T09:55:19;2.80;;;1.20;;
12818;SDS011;6474;53.474;9.894;2023-06-10T09:57:48;1.88;;;1.60;;
12818;SDS011;6474;53.474;9.894;2023-06-10T10:00:17;1.63;;;1.52;;
12818;SDS011;6474;53.474;9.894;2023-06-10T10:02:46;3.42;;;2.20;;
12818;SDS011;6474;53.474;9.894;2023-06-10T10:05:17;1.70;;;1.63;;
12818;SDS011;6474;53.474;9.894;2023-06-10T10:07:47;2.03;;;1.88;;
12818;SDS011;6474;53.474;9.894;2023-06-10T10:10:16;1.40;;;1.40;;
12818;SDS011;6474;53.474;9.894;2023-06-10T10:12:46;1.77;;;1.70;;
12818;SDS011;6474;53.474;9.894;2023-06-10T10:15:15;1.38;;;1.38;;
12818;SDS011;6474;53.474;9.894;2023-06-10T10:17:46;4.15;;;1.27;;
12818;SDS011;6474;53.474;9.894;2023-06-10T10:20:20;1.98;;;1.50;;
12818;SDS011;6474;53.474;9.894;2023-06-10T10:22:52;2.08;;;1.40;;
12818;SDS011;6474;53.474;9.894;2023-06-10T10:25:24;2.10;;;1.88;;
12818;SDS011;6474;53.474;9.894;2023-06-10T10:27:56;1.60;;;1.60;;
12818;SDS011;6474;53.474;9.894;2023-06-10T10:30:26;2.30;;;1.83;;
12818;SDS011;6474;53.474;9.894;2023-06-10T10:32:56;2.05;;;1.95;;
12818;SDS011;6474;53.474;9.894;2023-06-10T10:35:29;1.83;;;1.50;;
12818;SDS011;6474;53.474;9.894;2023-06-10T10:37:59;1.65;;;1.55;;
12818;SDS011;6474;53.474;9.894;2023-06-10T10:40:28;2.28;;;2.17;;
12818;SDS011;6474;53.474;9.894;2023-06-10T10:42:58;1.80;;;1.70;;
12818;SDS011;6474;53.474;9.894;2023-06-10T10:45:27;2.22;;;1.83;;
12818;SDS011;6474;53.474;9.894;2023-06-10T10:47:55;2.90;;;1.73;;
12818;SDS011;6474;53.474;9.894;2023-06-10T10:50:24;2.13;;;1.92;;
12818;SDS011;6474;53.474;9.894;2023-06-10T10:52:58;1.80;;;1.70;;
12818;SDS011;6474;53.474;9.894;2023-06-10T10:55:29;1.65;;;1.55;;
12818;SDS011;6474;53.474;9.894;2023-06-10T10:57:57;2.65;;;1.83;;
12818;SDS011;6474;53.474;9.894;2023-06-10T11:00:29;1.98;;;1.88;;
12818;SDS011;6474;53.474;9.894;2023-06-10T11:02:59;1.77;;;1.67;;
12818;SDS011;6474;53.474;9.894;2023-06-10T11:05:38;1.55;;;1.55;;
12818;SDS011;6474;53.474;9.894;2023-06-10T11:08:07;1.80;;;1.70;;
12818;SDS011;6474;53.474;9.894;2023-06-10T11:10:37;3.47;;;1.77;;
12818;SDS011;6474;53.474;9.894;2023-06-10T11:13:06;2.00;;;1.90;;
12818;SDS011;6474;53.474;9.894;2023-06-10T11:15:38;2.85;;;1.83;;
12818;SDS011;6474;53.474;9.894;2023-06-10T11:18:10;1.80;;;1.70;;
12818;SDS011;6474;53.474;9.894;2023-06-10T11:21:00;5.00;;;2.10;;
12818;SDS011;6474;53.474;9.894;2023-06-10T11:23:33;1.85;;;1.75;;
12818;SDS011;6474;53.474;9.894;2023-06-10T11:26:15;2.08;;;1.98;;
12818;SDS011;6474;53.474;9.894;2023-06-10T11:29:00;3.42;;;1.98;;
12818;SDS011;6474;53.474;9.894;2023-06-10T11:31:39;1.95;;;1.85;;
12818;SDS011;6474;53.474;9.894;2023-06-10T11:34:21;5.20;;;2.10;;
12818;SDS011;6474;53.474;9.894;2023-06-10T11:36:54;2.00;;;1.90;;
12818;SDS011;6474;53.474;9.894;2023-06-10T11:39:23;1.98;;;1.88;;
12818;SDS011;6474;53.474;9.894;2023-06-10T11:41:53;2.05;;;2.00;;
12818;SDS011;6474;53.474;9.894;2023-06-10T11:44:22;2.03;;;1.92;;
12818;SDS011;6474;53.474;9.894;2023-06-10T11:46:56;3.45;;;2.40;;
12818;SDS011;6474;53.474;9.894;2023-06-10T11:49:24;2.83;;;2.50;;
12818;SDS011;6474;53.474;9.894;2023-06-10T11:51:52;2.38;;;2.28;;
12818;SDS011;6474;53.474;9.894;2023-06-10T11:54:21;2.03;;;2.00;;
12818;SDS011;6474;53.474;9.894;2023-06-10T11:56:49;2.55;;;2.45;;
12818;SDS011;6474;53.474;9.894;2023-06-10T11:59:17;2.83;;;2.70;;
12818;SDS011;6474;53.474;9.894;2023-06-10T12:01:45;2.53;;;2.53;;
12818;SDS011;6474;53.474;9.894;2023-06-10T12:04:14;2.67;;;2.58;;
12818;SDS011;6474;53.474;9.894;2023-06-10T12:06:45;3.08;;;2.88;;
12818;SDS011;6474;53.474;9.894;2023-06-10T12:09:15;3.97;;;3.20;;
12818;SDS011;6474;53.474;9.894;2023-06-10T12:11:52;4.65;;;2.83;;
12818;SDS011;6474;53.474;9.894;2023-06-10T12:17:21;2.33;;;2.33;;
12818;SDS011;6474;53.474;9.894;2023-06-10T12:19:50;3.33;;;2.75;;
12818;SDS011;6474;53.474;9.894;2023-06-10T12:22:18;2.70;;;2.60;;
12818;SDS011;6474;53.474;9.894;2023-06-10T12:24:57;3.00;;;2.80;;
12818;SDS011;6474;53.474;9.894;2023-06-10T12:27:31;2.97;;;2.78;;
12818;SDS011;6474;53.474;9.894;2023-06-10T12:30:00;2.97;;;2.72;;
12818;SDS011;6474;53.474;9.894;2023-06-10T12:32:38;3.03;;;2.92;;
12818;SDS011;6474;53.474;9.894;2023-06-10T12:35:08;3.30;;;2.90;;
12818;SDS011;6474;53.474;9.894;2023-06-10T12:37:37;3.00;;;2.78;;
12818;SDS011;6474;53.474;9.894;2023-06-10T12:40:09;3.92;;;2.97;;
12818;SDS011;6474;53.474;9.894;2023-06-10T12:42:38;4.40;;;2.72;;
12818;SDS011;6474;53.474;9.894;2023-06-10T12:45:08;2.53;;;2.42;;
12818;SDS011;6474;53.474;9.894;2023-06-10T12:47:37;6.72;;;2.33;;
12818;SDS011;6474;53.474;9.894;2023-06-10T12:50:06;2.97;;;2.50;;
12818;SDS011;6474;53.474;9.894;2023-06-10T12:52:35;2.83;;;2.67;;
12818;SDS011;6474;53.474;9.894;2023-06-10T12:55:03;2.95;;;2.55;;
12818;SDS011;6474;53.474;9.894;2023-06-10T12:57:32;4.50;;;2.67;;
12818;SDS011;6474;53.474;9.894;2023-06-10T13:00:02;2.20;;;2.08;;
12818;SDS011;6474;53.474;9.894;2023-06-10T13:02:34;2.90;;;2.80;;
12818;SDS011;6474;53.474;9.894;2023-06-10T13:05:02;2.92;;;2.50;;
12818;SDS011;6474;53.474;9.894;2023-06-10T13:07:31;2.50;;;2.30;;
12818;SDS011;6474;53.474;9.894;2023-06-10T13:09:59;3.38;;;3.00;;
12818;SDS011;6474;53.474;9.894;2023-06-10T13:12:27;2.45;;;2.40;;
12818;SDS011;6474;53.474;9.894;2023-06-10T13:15:13;3.03;;;2.85;;
12818;SDS011;6474;53.474;9.894;2023-06-10T13:17:41;2.85;;;2.72;;
12818;SDS011;6474;53.474;9.894;2023-06-10T13:20:10;3.05;;;2.88;;
12818;SDS011;6474;53.474;9.894;2023-06-10T13:22:38;3.03;;;2.67;;
12818;SDS011;6474;53.474;9.894;2023-06-10T13:25:06;2.72;;;2.63;;
12818;SDS011;6474;53.474;9.894;2023-06-10T13:27:35;2.67;;;2.50;;
12818;SDS011;6474;53.474;9.894;2023-06-10T13:30:05;3.28;;;2.55;;
12818;SDS011;6474;53.474;9.894;2023-06-10T13:32:36;3.50;;;2.90;;
12818;SDS011;6474;53.474;9.894;2023-06-10T13:35:04;2.58;;;2.47;;
12818;SDS011;6474;53.474;9.894;2023-06-10T13:37:34;3.20;;;2.95;;
12818;SDS011;6474;53.474;9.894;2023-06-10T13:40:03;4.28;;;3.25;;
12818;SDS011;6474;53.474;9.894;2023-06-10T13:42:31;2.58;;;2.47;;
12818;SDS011;6474;53.474;9.894;2023-06-10T13:44:59;3.05;;;2.88;;
12818;SDS011;6474;53.474;9.894;2023-06-10T13:47:27;3.22;;;3.03;;
12818;SDS011;6474;53.474;9.894;2023-06-10T13:49:56;2.60;;;2.40;;
12818;SDS011;6474;53.474;9.894;2023-06-10T13:52:24;6.20;;;2.90;;
12818;SDS011;6474;53.474;9.894;2023-06-10T13:54:52;2.80;;;2.70;;
12818;SDS011;6474;53.474;9.894;2023-06-10T13:57:20;2.50;;;2.40;;
12818;SDS011;6474;53.474;9.894;2023-06-10T13:59:48;2.72;;;2.63;;
12818;SDS011;6474;53.474;9.894;2023-06-10T14:02:16;2.70;;;2.55;;
12818;SDS011;6474;53.474;9.894;2023-06-10T14:04:44;3.20;;;2.90;;
12818;SDS011;6474;53.474;9.894;2023-06-10T14:07:14;3.17;;;2.72;;
12818;SDS011;6474;53.474;9.894;2023-06-10T14:09:42;3.05;;;2.75;;
12818;SDS011;6474;53.474;9.894;2023-06-10T14:12:11;3.17;;;3.08;;
12818;SDS011;6474;53.474;9.894;2023-06-10T14:14:39;3.20;;;3.00;;
12818;SDS011;6474;53.474;9.894;2023-06-10T14:17:07;8.00;;;2.95;;
12818;SDS011;6474;53.474;9.894;2023-06-10T14:19:35;4.00;;;2.75;;
12818;SDS011;6474;53.474;9.894;2023-06-10T14:22:03;3.00;;;2.80;;
12818;SDS011;6474;53.474;9.894;2023-06-10T14:24:34;2.55;;;2.55;;
12818;SDS011;6474;53.474;9.894;2023-06-10T14:27:04;3.63;;;2.65;;
12818;SDS011;6474;53.474;9.894;2023-06-10T14:29:32;3.25;;;3.05;;
12818;SDS011;6474;53.474;9.894;2023-06-10T14:32:01;2.42;;;2.33;;
12818;SDS011;6474;53.474;9.894;2023-06-10T14:34:34;2.10;;;2.00;;
12818;SDS011;6474;53.474;9.894;2023-06-10T14:37:02;1.92;;;1.83;;
12818;SDS011;6474;53.474;9.894;2023-06-10T14:39:34;2.15;;;2.00;;
12818;SDS011;6474;53.474;9.894;2023-06-10T14:42:02;2.22;;;2.13;;
12818;SDS011;6474;53.474;9.894;2023-06-10T14:44:31;1.90;;;1.90;;
12818;SDS011;6474;53.474;9.894;2023-06-10T14:46:59;2.10;;;2.00;;
12818;SDS011;6474;53.474;9.894;2023-06-10T14:49:27;2.53;;;2.40;;
12818;SDS011;6474;53.474;9.894;2023-06-10T14:51:54;2.17;;;2.08;;
12818;SDS011;6474;53.474;9.894;2023-06-10T14:54:22;1.58;;;1.58;;
12818;SDS011;6474;53.474;9.894;2023-06-10T14:56:51;2.20;;;1.90;;
12818;SDS011;6474;53.474;9.894;2023-06-10T14:59:19;4.88;;;2.20;;
12818;SDS011;6474;53.474;9.894;2023-06-10T15:01:47;2.42;;;1.95;;
12818;SDS011;6474;53.474;9.894;2023-06-10T15:04:15;3.95;;;2.15;;
12818;SDS011;6474;53.474;9.894;2023-06-10T15:06:47;2.45;;;2.25;;
12818;SDS011;6474;53.474;9.894;2023-06-10T15:09:15;1.98;;;1.70;;
12818;SDS011;6474;53.474;9.894;2023-06-10T15:11:43;2.90;;;1.60;;
12818;SDS011;6474;53.474;9.894;2023-06-10T15:14:12;2.20;;;2.10;;
12818;SDS011;6474;53.474;9.894;2023-06-10T15:16:40;2.40;;;2.30;;